sensor_id;sensor_type;location;lat;lon;timestamp;pressure;altitude;pressure_sealevel;temperature;humidity
72226;BME280;60130;52.250;5.048;2022-12-11T00:00:00;1010.7;;;2.4;92.9
72226;BME280;60130;52.250;5.048;2022-12-11T00:05:00;1010.7;;;2.4;92.9
72226;BME280;60130;52.250;5.048;2022-12-11T00:10:00;1010.7;;;2.4;92.8
72226;BME280;60130;52.250;5.048;2022-12-11T00:15:00;1010.7;;;2.4;92.9
72226;BME280;60130;52.250;5.048;2022-12-11T00:20:00;1010.7;;;2.5;92.7
72226;BME280;60130;52.250;5.048;2022-12-11T00:25:00;1010.8;;;2.5;92.6
72226;BME280;60130;52.250;5.048;2022-12-11T00:30:00;1010.8;;;2.3;92.9
72226;BME280;60130;52.250;5.048;2022-12-11T00:35:01;1010.7;;;2.4;92.9
72226;BME280;60130;52.250;5.048;2022-12-11T00:40:00;1010.7;;;2.4;92.7
72226;BME280;60130;52.250;5.048;2022-12-11T00:45:00;1010.7;;;2.5;92.6
72226;BME280;60130;52.250;5.048;2022-12-11T00:50:00;1010.7;;;2.5;92.6
72226;BME280;60130;52.250;5.048;2022-12-11T00:55:00;1010.6;;;2.4;92.7
72226;BME280;60130;52.250;5.048;2022-12-11T01:00:00;1010.7;;;2.5;92.8
72226;BME280;60130;52.250;5.048;2022-12-11T01:05:00;1010.6;;;2.6;92.7
72226;BME280;60130;52.250;5.048;2022-12-11T01:10:00;1010.6;;;2.6;92.5
72226;BME280;60130;52.250;5.048;2022-12-11T01:15:00;1010.6;;;2.6;92.7
72226;BME280;60130;52.250;5.048;2022-12-11T01:20:00;1010.4;;;2.6;92.6
72226;BME280;60130;52.250;5.048;2022-12-11T01:25:00;1010.6;;;2.6;92.6
72226;BME280;60130;52.250;5.048;2022-12-11T01:30:00;1010.6;;;2.5;92.7
72226;BME280;60130;52.250;5.048;2022-12-11T01:35:01;1010.5;;;2.6;92.5
72226;BME280;60130;52.250;5.048;2022-12-11T01:40:01;1010.5;;;2.7;92.4
72226;BME280;60130;52.250;5.048;2022-12-11T01:50:00;1010.6;;;2.7;92.2
72226;BME280;60130;52.250;5.048;2022-12-11T01:55:00;1010.6;;;2.6;91.9
72226;BME280;60130;52.250;5.048;2022-12-11T02:00:00;1010.5;;;2.7;92.1
72226;BME280;60130;52.250;5.048;2022-12-11T02:05:00;1010.4;;;2.6;92.2
72226;BME280;60130;52.250;5.048;2022-12-11T02:10:00;1010.2;;;2.5;92.2
72226;BME280;60130;52.250;5.048;2022-12-11T02:15:06;1010.2;;;2.5;92.3
72226;BME280;60130;52.250;5.048;2022-12-11T02:20:05;1010.3;;;2.6;92.1
72226;BME280;60130;52.250;5.048;2022-12-11T02:25:08;1010.3;;;2.7;91.9
72226;BME280;60130;52.250;5.048;2022-12-11T02:30:02;1010.2;;;2.7;91.8
72226;BME280;60130;52.250;5.048;2022-12-11T02:35:03;1010.2;;;2.8;91.3
72226;BME280;60130;52.250;5.048;2022-12-11T02:40:02;1010.1;;;2.9;91.4
72226;BME280;60130;52.250;5.048;2022-12-11T02:45:00;1010.2;;;2.8;91.3
72226;BME280;60130;52.250;5.048;2022-12-11T02:50:01;1010.2;;;2.8;91.1
72226;BME280;60130;52.250;5.048;2022-12-11T02:55:01;1010.2;;;2.8;91.4
72226;BME280;60130;52.250;5.048;2022-12-11T03:00:00;1010.1;;;2.8;90.9
72226;BME280;60130;52.250;5.048;2022-12-11T03:05:00;1010.1;;;2.8;90.6
72226;BME280;60130;52.250;5.048;2022-12-11T03:10:00;1010.0;;;2.6;90.6
72226;BME280;60130;52.250;5.048;2022-12-11T03:15:03;1010.1;;;2.6;90.9
72226;BME280;60130;52.250;5.048;2022-12-11T03:20:06;1010.1;;;2.6;90.8
72226;BME280;60130;52.250;5.048;2022-12-11T03:25:03;1010.1;;;2.7;90.6
72226;BME280;60130;52.250;5.048;2022-12-11T03:30:04;1010.0;;;2.6;90.9
72226;BME280;60130;52.250;5.048;2022-12-11T03:35:04;1010.0;;;2.6;91.0
72226;BME280;60130;52.250;5.048;2022-12-11T03:40:02;1010.0;;;2.5;91.2
72226;BME280;60130;52.250;5.048;2022-12-11T03:45:01;1010.0;;;2.6;91.2
72226;BME280;60130;52.250;5.048;2022-12-11T03:50:00;1010.0;;;2.6;91.1
72226;BME280;60130;52.250;5.048;2022-12-11T03:55:02;1010.0;;;2.7;91.1
72226;BME280;60130;52.250;5.048;2022-12-11T04:00:00;1009.9;;;2.5;90.9
72226;BME280;60130;52.250;5.048;2022-12-11T04:05:00;1009.9;;;2.6;90.9
72226;BME280;60130;52.250;5.048;2022-12-11T04:10:00;1010.0;;;2.6;90.6
72226;BME280;60130;52.250;5.048;2022-12-11T04:15:00;1010.0;;;2.6;90.8
72226;BME280;60130;52.250;5.048;2022-12-11T04:20:00;1010.0;;;2.6;90.9
72226;BME280;60130;52.250;5.048;2022-12-11T04:25:00;1010.0;;;2.8;90.5
72226;BME280;60130;52.250;5.048;2022-12-11T04:30:00;1010.0;;;2.8;90.0
72226;BME280;60130;52.250;5.048;2022-12-11T04:35:00;1009.9;;;2.8;89.3
72226;BME280;60130;52.250;5.048;2022-12-11T04:40:00;1009.9;;;2.6;89.8
72226;BME280;60130;52.250;5.048;2022-12-11T04:45:00;1009.9;;;2.7;89.9
72226;BME280;60130;52.250;5.048;2022-12-11T04:50:00;1009.9;;;2.7;89.9
72226;BME280;60130;52.250;5.048;2022-12-11T04:55:00;1009.8;;;2.7;89.8
72226;BME280;60130;52.250;5.048;2022-12-11T05:00:00;1009.9;;;2.7;89.9
72226;BME280;60130;52.250;5.048;2022-12-11T05:05:00;1009.9;;;2.6;90.2
72226;BME280;60130;52.250;5.048;2022-12-11T05:10:00;1009.9;;;2.7;90.2
72226;BME280;60130;52.250;5.048;2022-12-11T05:15:00;1010.0;;;2.6;90.0
72226;BME280;60130;52.250;5.048;2022-12-11T05:20:00;1010.0;;;2.8;90.1
72226;BME280;60130;52.250;5.048;2022-12-11T05:25:00;1009.9;;;2.7;90.0
72226;BME280;60130;52.250;5.048;2022-12-11T05:30:00;1009.9;;;2.7;90.1
72226;BME280;60130;52.250;5.048;2022-12-11T05:35:00;1009.8;;;2.7;90.0
72226;BME280;60130;52.250;5.048;2022-12-11T05:40:00;1009.8;;;2.6;89.9
72226;BME280;60130;52.250;5.048;2022-12-11T05:45:00;1009.8;;;2.6;90.2
72226;BME280;60130;52.250;5.048;2022-12-11T05:50:00;1009.8;;;2.6;89.8
72226;BME280;60130;52.250;5.048;2022-12-11T05:55:00;1009.7;;;2.6;90.0
72226;BME280;60130;52.250;5.048;2022-12-11T06:00:00;1009.7;;;2.5;90.3
72226;BME280;60130;52.250;5.048;2022-12-11T06:05:00;1009.6;;;2.5;90.4
72226;BME280;60130;52.250;5.048;2022-12-11T06:10:00;1009.6;;;2.4;90.4
72226;BME280;60130;52.250;5.048;2022-12-11T06:15:00;1009.6;;;2.4;90.6
72226;BME280;60130;52.250;5.048;2022-12-11T06:20:00;1009.6;;;2.5;90.2
72226;BME280;60130;52.250;5.048;2022-12-11T06:25:00;1009.7;;;2.4;90.1
72226;BME280;60130;52.250;5.048;2022-12-11T06:30:00;1009.7;;;2.5;90.0
72226;BME280;60130;52.250;5.048;2022-12-11T06:35:00;1009.6;;;2.4;90.1
72226;BME280;60130;52.250;5.048;2022-12-11T06:40:00;1009.7;;;2.5;90.1
72226;BME280;60130;52.250;5.048;2022-12-11T06:45:00;1009.7;;;2.5;89.9
72226;BME280;60130;52.250;5.048;2022-12-11T06:50:00;1009.8;;;2.3;90.1
72226;BME280;60130;52.250;5.048;2022-12-11T06:55:00;1009.8;;;2.4;90.1
72226;BME280;60130;52.250;5.048;2022-12-11T07:00:00;1009.8;;;2.4;89.7
72226;BME280;60130;52.250;5.048;2022-12-11T07:05:00;1009.8;;;2.4;89.6
72226;BME280;60130;52.250;5.048;2022-12-11T07:10:00;1009.8;;;2.3;89.4
72226;BME280;60130;52.250;5.048;2022-12-11T07:15:00;1009.8;;;2.3;89.5
72226;BME280;60130;52.250;5.048;2022-12-11T07:20:00;1009.9;;;2.4;89.2
72226;BME280;60130;52.250;5.048;2022-12-11T07:25:00;1009.9;;;2.3;88.7
72226;BME280;60130;52.250;5.048;2022-12-11T07:30:00;1009.9;;;2.3;88.5
72226;BME280;60130;52.250;5.048;2022-12-11T07:35:00;1009.9;;;2.3;88.4
72226;BME280;60130;52.250;5.048;2022-12-11T07:40:00;1009.9;;;2.4;88.2
72226;BME280;60130;52.250;5.048;2022-12-11T07:45:00;1009.9;;;2.3;88.2
72226;BME280;60130;52.250;5.048;2022-12-11T07:50:00;1009.9;;;2.4;88.4
72226;BME280;60130;52.250;5.048;2022-12-11T07:55:00;1009.9;;;2.2;88.5
72226;BME280;60130;52.250;5.048;2022-12-11T08:00:00;1009.9;;;2.2;88.3
72226;BME280;60130;52.250;5.048;2022-12-11T08:05:00;1009.9;;;2.2;88.0
72226;BME280;60130;52.250;5.048;2022-12-11T08:10:00;1010.0;;;2.2;88.3
72226;BME280;60130;52.250;5.048;2022-12-11T08:15:00;1010.1;;;2.3;88.3
72226;BME280;60130;52.250;5.048;2022-12-11T08:20:00;1010.1;;;2.3;88.0
72226;BME280;60130;52.250;5.048;2022-12-11T08:25:00;1010.2;;;2.2;87.7
72226;BME280;60130;52.250;5.048;2022-12-11T08:30:00;1010.2;;;2.3;87.6
72226;BME280;60130;52.250;5.048;2022-12-11T08:35:00;1010.2;;;2.3;87.9
72226;BME280;60130;52.250;5.048;2022-12-11T08:40:00;1010.2;;;2.3;87.5
72226;BME280;60130;52.250;5.048;2022-12-11T08:45:00;1010.2;;;2.2;87.9
72226;BME280;60130;52.250;5.048;2022-12-11T08:50:00;1010.1;;;2.3;87.8
72226;BME280;60130;52.250;5.048;2022-12-11T08:55:00;1010.1;;;2.3;87.6
72226;BME280;60130;52.250;5.048;2022-12-11T09:00:00;1010.1;;;2.5;87.4
72226;BME280;60130;52.250;5.048;2022-12-11T09:05:00;1010.1;;;2.5;87.1
72226;BME280;60130;52.250;5.048;2022-12-11T09:10:00;1010.0;;;2.6;86.5
72226;BME280;60130;52.250;5.048;2022-12-11T09:15:00;1009.9;;;2.6;86.1
72226;BME280;60130;52.250;5.048;2022-12-11T09:20:00;1009.8;;;2.6;85.6
72226;BME280;60130;52.250;5.048;2022-12-11T09:25:00;1009.9;;;2.7;85.9
72226;BME280;60130;52.250;5.048;2022-12-11T09:30:00;1009.9;;;2.9;85.8
72226;BME280;60130;52.250;5.048;2022-12-11T09:35:00;1009.9;;;3.0;84.6
72226;BME280;60130;52.250;5.048;2022-12-11T09:40:00;1010.0;;;3.0;84.7
72226;BME280;60130;52.250;5.048;2022-12-11T09:45:02;1010.0;;;2.8;84.9
72226;BME280;60130;52.250;5.048;2022-12-11T09:50:05;1009.9;;;2.9;85.3
72226;BME280;60130;52.250;5.048;2022-12-11T09:55:03;1009.9;;;3.0;84.9
72226;BME280;60130;52.250;5.048;2022-12-11T10:00:08;1009.9;;;3.1;84.9
72226;BME280;60130;52.250;5.048;2022-12-11T10:05:07;1009.9;;;3.1;84.5
72226;BME280;60130;52.250;5.048;2022-12-11T10:10:06;1009.9;;;3.2;84.9
72226;BME280;60130;52.250;5.048;2022-12-11T10:15:13;1010.0;;;3.3;84.1
72226;BME280;60130;52.250;5.048;2022-12-11T10:20:05;1009.9;;;3.2;84.0
72226;BME280;60130;52.250;5.048;2022-12-11T10:25:03;1009.9;;;3.2;85.2
72226;BME280;60130;52.250;5.048;2022-12-11T10:30:07;1009.9;;;3.3;85.1
72226;BME280;60130;52.250;5.048;2022-12-11T10:35:03;1009.9;;;3.2;84.9
72226;BME280;60130;52.250;5.048;2022-12-11T10:40:00;1009.8;;;3.3;85.1
72226;BME280;60130;52.250;5.048;2022-12-11T10:45:01;1009.7;;;3.5;84.6
72226;BME280;60130;52.250;5.048;2022-12-11T10:50:01;1009.7;;;3.4;84.5
72226;BME280;60130;52.250;5.048;2022-12-11T10:55:03;1009.7;;;3.4;84.1
72226;BME280;60130;52.250;5.048;2022-12-11T11:00:01;1009.7;;;3.3;84.6
72226;BME280;60130;52.250;5.048;2022-12-11T11:05:10;1009.6;;;3.3;85.0
72226;BME280;60130;52.250;5.048;2022-12-11T11:10:13;1009.5;;;3.4;84.9
72226;BME280;60130;52.250;5.048;2022-12-11T11:15:01;1009.5;;;3.6;85.1
72226;BME280;60130;52.250;5.048;2022-12-11T11:20:05;1009.5;;;3.7;84.3
72226;BME280;60130;52.250;5.048;2022-12-11T11:25:00;1009.5;;;3.6;84.3
72226;BME280;60130;52.250;5.048;2022-12-11T11:30:03;1009.5;;;3.6;84.7
72226;BME280;60130;52.250;5.048;2022-12-11T11:35:14;1009.4;;;3.6;84.6
72226;BME280;60130;52.250;5.048;2022-12-11T11:40:05;1009.5;;;3.4;84.5
72226;BME280;60130;52.250;5.048;2022-12-11T11:45:03;1009.5;;;3.5;85.4
72226;BME280;60130;52.250;5.048;2022-12-11T11:50:03;1009.4;;;3.5;85.1
72226;BME280;60130;52.250;5.048;2022-12-11T11:55:06;1009.4;;;3.4;85.7
72226;BME280;60130;52.250;5.048;2022-12-11T12:00:04;1009.3;;;3.5;85.1
72226;BME280;60130;52.250;5.048;2022-12-11T12:05:00;1009.3;;;3.6;84.9
72226;BME280;60130;52.250;5.048;2022-12-11T12:10:08;1009.3;;;3.7;84.7
72226;BME280;60130;52.250;5.048;2022-12-11T12:15:09;1009.3;;;3.6;84.7
72226;BME280;60130;52.250;5.048;2022-12-11T12:20:04;1009.3;;;3.5;85.1
72226;BME280;60130;52.250;5.048;2022-12-11T12:25:09;1009.3;;;3.6;85.2
72226;BME280;60130;52.250;5.048;2022-12-11T12:30:04;1009.3;;;3.7;85.5
72226;BME280;60130;52.250;5.048;2022-12-11T12:35:12;1009.3;;;3.7;85.1
72226;BME280;60130;52.250;5.048;2022-12-11T12:40:09;1009.3;;;3.6;84.9
72226;BME280;60130;52.250;5.048;2022-12-11T12:45:06;1009.3;;;3.6;84.8
72226;BME280;60130;52.250;5.048;2022-12-11T12:50:02;1009.2;;;3.7;84.5
72226;BME280;60130;52.250;5.048;2022-12-11T12:55:04;1009.2;;;3.8;84.4
72226;BME280;60130;52.250;5.048;2022-12-11T13:00:00;1009.2;;;3.9;83.9
72226;BME280;60130;52.250;5.048;2022-12-11T13:05:16;1009.2;;;3.7;83.0
72226;BME280;60130;52.250;5.048;2022-12-11T13:10:04;1009.2;;;3.6;84.1
72226;BME280;60130;52.250;5.048;2022-12-11T13:15:00;1009.1;;;3.5;84.8
72226;BME280;60130;52.250;5.048;2022-12-11T13:20:13;1009.1;;;3.5;85.2
72226;BME280;60130;52.250;5.048;2022-12-11T13:25:01;1009.0;;;3.4;85.4
72226;BME280;60130;52.250;5.048;2022-12-11T13:30:06;1009.2;;;3.3;85.5
72226;BME280;60130;52.250;5.048;2022-12-11T13:35:04;1009.2;;;3.4;85.3
72226;BME280;60130;52.250;5.048;2022-12-11T13:40:03;1009.3;;;3.3;85.7
72226;BME280;60130;52.250;5.048;2022-12-11T13:45:00;1009.2;;;3.5;85.4
72226;BME280;60130;52.250;5.048;2022-12-11T13:50:10;1009.2;;;3.5;85.3
72226;BME280;60130;52.250;5.048;2022-12-11T13:55:00;1009.2;;;3.5;85.0
72226;BME280;60130;52.250;5.048;2022-12-11T14:00:00;1009.2;;;3.4;85.5
72226;BME280;60130;52.250;5.048;2022-12-11T14:05:02;1009.3;;;3.4;85.8
72226;BME280;60130;52.250;5.048;2022-12-11T14:10:04;1009.3;;;3.3;85.6
72226;BME280;60130;52.250;5.048;2022-12-11T14:15:02;1009.3;;;3.3;85.4
72226;BME280;60130;52.250;5.048;2022-12-11T14:20:03;1009.3;;;3.3;85.7
72226;BME280;60130;52.250;5.048;2022-12-11T14:25:12;1009.3;;;3.2;85.5
72226;BME280;60130;52.250;5.048;2022-12-11T14:30:08;1009.3;;;3.0;86.1
72226;BME280;60130;52.250;5.048;2022-12-11T14:35:03;1009.3;;;2.9;86.4
72226;BME280;60130;52.250;5.048;2022-12-11T14:40:02;1009.3;;;2.8;86.8
72226;BME280;60130;52.250;5.048;2022-12-11T14:45:03;1009.3;;;2.9;86.4
72226;BME280;60130;52.250;5.048;2022-12-11T14:50:02;1009.3;;;2.9;86.3
72226;BME280;60130;52.250;5.048;2022-12-11T14:55:04;1009.3;;;3.0;86.4
72226;BME280;60130;52.250;5.048;2022-12-11T15:00:00;1009.3;;;3.0;86.2
72226;BME280;60130;52.250;5.048;2022-12-11T15:05:12;1009.3;;;3.0;85.8
72226;BME280;60130;52.250;5.048;2022-12-11T15:10:00;1009.3;;;3.0;85.7
72226;BME280;60130;52.250;5.048;2022-12-11T15:15:03;1009.4;;;3.0;85.9
72226;BME280;60130;52.250;5.048;2022-12-11T15:20:02;1009.4;;;3.0;85.3
72226;BME280;60130;52.250;5.048;2022-12-11T15:25:00;1009.4;;;3.1;85.1
72226;BME280;60130;52.250;5.048;2022-12-11T15:30:00;1009.5;;;3.3;85.2
72226;BME280;60130;52.250;5.048;2022-12-11T15:35:00;1009.5;;;3.0;85.5
72226;BME280;60130;52.250;5.048;2022-12-11T15:40:01;1009.5;;;2.8;85.4
72226;BME280;60130;52.250;5.048;2022-12-11T15:45:01;1009.5;;;2.9;85.6
72226;BME280;60130;52.250;5.048;2022-12-11T15:50:06;1009.5;;;3.1;85.3
72226;BME280;60130;52.250;5.048;2022-12-11T15:55:00;1009.5;;;3.2;84.4
72226;BME280;60130;52.250;5.048;2022-12-11T16:00:00;1009.6;;;3.1;84.3
72226;BME280;60130;52.250;5.048;2022-12-11T16:05:00;1009.5;;;3.2;84.3
72226;BME280;60130;52.250;5.048;2022-12-11T16:10:00;1009.5;;;3.0;85.0
72226;BME280;60130;52.250;5.048;2022-12-11T16:15:00;1009.5;;;2.9;84.7
72226;BME280;60130;52.250;5.048;2022-12-11T16:20:00;1009.5;;;2.8;85.6
72226;BME280;60130;52.250;5.048;2022-12-11T16:25:00;1009.5;;;2.8;85.6
72226;BME280;60130;52.250;5.048;2022-12-11T16:30:00;1009.5;;;2.9;85.0
72226;BME280;60130;52.250;5.048;2022-12-11T16:35:00;1009.5;;;2.8;85.3
72226;BME280;60130;52.250;5.048;2022-12-11T16:40:00;1009.5;;;2.8;85.0
72226;BME280;60130;52.250;5.048;2022-12-11T16:45:03;1009.5;;;2.7;84.5
72226;BME280;60130;52.250;5.048;2022-12-11T16:50:00;1009.5;;;2.8;83.4
72226;BME280;60130;52.250;5.048;2022-12-11T16:55:00;1009.5;;;2.7;83.5
72226;BME280;60130;52.250;5.048;2022-12-11T17:00:00;1009.5;;;2.8;83.4
72226;BME280;60130;52.250;5.048;2022-12-11T17:05:00;1009.5;;;2.9;83.0
72226;BME280;60130;52.250;5.048;2022-12-11T17:10:00;1009.5;;;2.8;82.9
72226;BME280;60130;52.250;5.048;2022-12-11T17:15:00;1009.5;;;2.9;81.5
72226;BME280;60130;52.250;5.048;2022-12-11T17:20:00;1009.6;;;2.9;81.0
72226;BME280;60130;52.250;5.048;2022-12-11T17:25:00;1009.6;;;3.0;80.9
72226;BME280;60130;52.250;5.048;2022-12-11T17:30:00;1009.6;;;3.0;82.1
72226;BME280;60130;52.250;5.048;2022-12-11T17:35:00;1009.6;;;3.0;82.8
72226;BME280;60130;52.250;5.048;2022-12-11T17:40:00;1009.6;;;2.9;83.0
72226;BME280;60130;52.250;5.048;2022-12-11T17:45:00;1009.6;;;2.7;83.6
72226;BME280;60130;52.250;5.048;2022-12-11T17:50:00;1009.6;;;2.6;83.3
72226;BME280;60130;52.250;5.048;2022-12-11T17:55:00;1009.6;;;2.5;83.1
72226;BME280;60130;52.250;5.048;2022-12-11T18:00:00;1009.6;;;2.4;83.5
72226;BME280;60130;52.250;5.048;2022-12-11T18:05:00;1009.6;;;2.4;83.2
72226;BME280;60130;52.250;5.048;2022-12-11T18:10:00;1009.6;;;2.5;83.2
72226;BME280;60130;52.250;5.048;2022-12-11T18:15:00;1009.7;;;2.4;83.4
72226;BME280;60130;52.250;5.048;2022-12-11T18:20:00;1009.7;;;2.3;83.2
72226;BME280;60130;52.250;5.048;2022-12-11T18:25:00;1009.7;;;2.4;82.9
72226;BME280;60130;52.250;5.048;2022-12-11T18:30:00;1009.7;;;2.4;83.2
72226;BME280;60130;52.250;5.048;2022-12-11T18:35:00;1009.7;;;2.3;83.4
72226;BME280;60130;52.250;5.048;2022-12-11T18:40:00;1009.7;;;2.4;82.8
72226;BME280;60130;52.250;5.048;2022-12-11T18:45:00;1009.7;;;2.3;82.2
72226;BME280;60130;52.250;5.048;2022-12-11T18:50:00;1009.7;;;2.4;82.3
72226;BME280;60130;52.250;5.048;2022-12-11T18:55:00;1009.8;;;2.4;81.4
72226;BME280;60130;52.250;5.048;2022-12-11T19:00:00;1009.7;;;2.4;81.6
72226;BME280;60130;52.250;5.048;2022-12-11T19:05:00;1009.8;;;2.4;81.2
72226;BME280;60130;52.250;5.048;2022-12-11T19:10:00;1009.7;;;2.4;81.7
72226;BME280;60130;52.250;5.048;2022-12-11T19:15:00;1009.7;;;2.4;81.9
72226;BME280;60130;52.250;5.048;2022-12-11T19:20:00;1009.8;;;2.4;81.7
72226;BME280;60130;52.250;5.048;2022-12-11T19:25:00;1009.8;;;2.3;81.4
72226;BME280;60130;52.250;5.048;2022-12-11T19:30:00;1009.8;;;2.3;81.6
72226;BME280;60130;52.250;5.048;2022-12-11T19:35:00;1009.8;;;2.5;81.6
72226;BME280;60130;52.250;5.048;2022-12-11T19:40:00;1009.8;;;2.5;81.5
72226;BME280;60130;52.250;5.048;2022-12-11T19:45:01;1009.8;;;2.6;81.3
72226;BME280;60130;52.250;5.048;2022-12-11T19:50:00;1009.7;;;2.5;80.9
72226;BME280;60130;52.250;5.048;2022-12-11T19:55:00;1009.8;;;2.5;80.5
72226;BME280;60130;52.250;5.048;2022-12-11T20:00:00;1009.8;;;2.6;80.3
72226;BME280;60130;52.250;5.048;2022-12-11T20:05:00;1009.8;;;2.6;80.3
72226;BME280;60130;52.250;5.048;2022-12-11T20:10:00;1009.7;;;2.6;80.4
72226;BME280;60130;52.250;5.048;2022-12-11T20:15:00;1009.7;;;2.7;80.7
72226;BME280;60130;52.250;5.048;2022-12-11T20:20:00;1009.8;;;2.6;80.7
72226;BME280;60130;52.250;5.048;2022-12-11T20:25:00;1009.8;;;2.4;81.4
72226;BME280;60130;52.250;5.048;2022-12-11T20:30:00;1009.8;;;2.4;81.5
72226;BME280;60130;52.250;5.048;2022-12-11T20:35:00;1009.8;;;2.6;79.6
72226;BME280;60130;52.250;5.048;2022-12-11T20:40:00;1009.9;;;2.7;79.5
72226;BME280;60130;52.250;5.048;2022-12-11T20:45:00;1009.8;;;2.5;79.0
72226;BME280;60130;52.250;5.048;2022-12-11T20:50:00;1009.9;;;2.4;78.8
72226;BME280;60130;52.250;5.048;2022-12-11T20:55:00;1009.9;;;2.5;78.0
72226;BME280;60130;52.250;5.048;2022-12-11T21:00:00;1009.9;;;2.7;77.5
72226;BME280;60130;52.250;5.048;2022-12-11T21:05:00;1009.9;;;2.6;78.5
72226;BME280;60130;52.250;5.048;2022-12-11T21:10:00;1009.9;;;2.2;78.5
72226;BME280;60130;52.250;5.048;2022-12-11T21:15:00;1009.9;;;2.3;77.1
72226;BME280;60130;52.250;5.048;2022-12-11T21:20:00;1009.9;;;2.6;77.0
72226;BME280;60130;52.250;5.048;2022-12-11T21:25:00;1009.9;;;2.4;78.0
72226;BME280;60130;52.250;5.048;2022-12-11T21:30:00;1009.9;;;2.3;78.6
72226;BME280;60130;52.250;5.048;2022-12-11T21:35:00;1009.9;;;2.5;78.7
72226;BME280;60130;52.250;5.048;2022-12-11T21:40:00;1009.9;;;2.4;79.7
72226;BME280;60130;52.250;5.048;2022-12-11T21:45:00;1009.9;;;2.4;80.2
72226;BME280;60130;52.250;5.048;2022-12-11T21:50:00;1010.0;;;2.2;80.5
72226;BME280;60130;52.250;5.048;2022-12-11T21:55:00;1009.9;;;2.3;80.7
72226;BME280;60130;52.250;5.048;2022-12-11T22:00:00;1009.9;;;2.3;81.5
72226;BME280;60130;52.250;5.048;2022-12-11T22:05:00;1010.0;;;2.1;81.7
72226;BME280;60130;52.250;5.048;2022-12-11T22:10:00;1010.0;;;2.1;81.9
72226;BME280;60130;52.250;5.048;2022-12-11T22:15:00;1010.0;;;2.1;82.3
72226;BME280;60130;52.250;5.048;2022-12-11T22:20:00;1010.1;;;2.0;82.3
72226;BME280;60130;52.250;5.048;2022-12-11T22:25:00;1010.1;;;2.0;82.5
72226;BME280;60130;52.250;5.048;2022-12-11T22:30:00;1010.1;;;2.0;82.9
72226;BME280;60130;52.250;5.048;2022-12-11T22:35:00;1010.1;;;2.0;83.2
72226;BME280;60130;52.250;5.048;2022-12-11T22:40:00;1010.1;;;2.0;83.0
72226;BME280;60130;52.250;5.048;2022-12-11T22:45:00;1010.1;;;2.0;83.2
72226;BME280;60130;52.250;5.048;2022-12-11T22:50:00;1010.2;;;2.0;83.3
72226;BME280;60130;52.250;5.048;2022-12-11T22:55:00;1010.2;;;2.0;83.1
72226;BME280;60130;52.250;5.048;2022-12-11T23:00:00;1010.2;;;2.0;83.4
72226;BME280;60130;52.250;5.048;2022-12-11T23:05:00;1010.3;;;2.0;83.3
72226;BME280;60130;52.250;5.048;2022-12-11T23:10:00;1010.3;;;2.0;83.3
72226;BME280;60130;52.250;5.048;2022-12-11T23:15:00;1010.3;;;2.0;83.5
72226;BME280;60130;52.250;5.048;2022-12-11T23:20:00;1010.2;;;2.0;83.4
72226;BME280;60130;52.250;5.048;2022-12-11T23:25:00;1010.2;;;1.9;83.5
72226;BME280;60130;52.250;5.048;2022-12-11T23:30:00;1010.2;;;2.0;83.5
72226;BME280;60130;52.250;5.048;2022-12-11T23:35:00;1010.2;;;1.9;83.5
72226;BME280;60130;52.250;5.048;2022-12-11T23:40:00;1010.2;;;1.9;83.8
72226;BME280;60130;52.250;5.048;2022-12-11T23:45:00;1010.2;;;1.9;83.9
72226;BME280;60130;52.250;5.048;2022-12-11T23:50:00;1010.2;;;1.9;84.3
72226;BME280;60130;52.250;5.048;2022-12-11T23:55:00;1010.2;;;1.9;84.3
